Time;durP1;ratioP1;P1;durP2;ratioP2;P2;SDS_P1;SDS_P2;PMS_P1;PMS_P2;Temp;Humidity;BMP_temperature;BMP_pressure;BME280_temperature;BME280_humidity;BME280_pressure;Samples;Min_cycle;Max_cycle;Signal;HPM_P1;HPM_P2
2021/08/14 00:02:09;;;;;;;11.57;10.30;;;;;;;17.02;73.59;99323.60;2283145;78;20958;-81
2021/08/14 00:05:09;;;;;;;13.98;10.70;;;;;;;17.01;73.89;99323.17;2282266;78;20938;-81
2021/08/14 00:08:10;;;;;;;15.05;10.43;;;;;;;17.01;74.31;99317.02;2283217;78;21009;-81
2021/08/14 00:11:10;;;;;;;14.50;10.58;;;;;;;16.96;74.19;99318.81;2283406;78;21237;-81
2021/08/14 00:14:11;;;;;;;13.93;11.50;;;;;;;16.97;74.32;99319.24;2257115;77;20960;-81
2021/08/14 00:17:11;;;;;;;17.15;11.40;;;;;;;16.99;74.35;99318.34;2250839;78;20944;-81
2021/08/14 00:20:12;;;;;;;16.90;10.15;;;;;;;16.95;74.50;99314.42;2251470;78;20960;-80
2021/08/14 00:23:12;;;;;;;13.90;10.60;;;;;;;16.89;74.43;99311.38;2249952;79;21018;-80
2021/08/14 00:26:13;;;;;;;223.60;192.90;;;;;;;16.86;74.57;99314.03;2249377;78;20971;-79
2021/08/14 00:29:13;;;;;;;54.50;41.40;;;;;;;16.86;74.90;99307.45;2249529;78;20932;-79
2021/08/14 00:32:14;;;;;;;31.02;13.88;;;;;;;16.85;75.14;99314.48;2250154;78;20940;-80
2021/08/14 00:35:14;;;;;;;17.00;11.55;;;;;;;16.85;75.12;99316.23;2250480;78;20940;-80
2021/08/14 00:38:15;;;;;;;13.13;10.78;;;;;;;16.80;75.14;99312.75;2250055;78;20960;-80
2021/08/14 00:41:15;;;;;;;13.25;10.98;;;;;;;16.77;75.39;99307.50;2249847;79;21036;-80
2021/08/14 00:44:16;;;;;;;17.87;10.95;;;;;;;16.75;75.52;99302.23;2250069;79;20900;-80
2021/08/14 00:47:16;;;;;;;20.12;12.35;;;;;;;16.77;75.50;99298.27;2250469;78;21051;-81
2021/08/14 00:50:17;;;;;;;15.78;12.23;;;;;;;16.82;75.66;99302.63;2249736;78;20955;-80
2021/08/14 00:53:17;;;;;;;20.80;13.08;;;;;;;16.92;75.81;99297.30;2249980;78;20964;-81
2021/08/14 00:56:18;;;;;;;20.90;13.05;;;;;;;16.97;75.80;99288.91;2249357;78;20963;-80
2021/08/14 00:59:18;;;;;;;19.77;12.55;;;;;;;17.00;75.76;99292.41;2250113;78;20968;-80
2021/08/14 01:02:19;;;;;;;26.35;12.88;;;;;;;17.06;75.82;99288.85;2250206;78;20932;-80
2021/08/14 01:05:19;;;;;;;16.57;11.18;;;;;;;17.08;75.71;99293.67;2250264;78;20987;-80
2021/08/14 01:08:19;;;;;;;25.02;12.40;;;;;;;17.08;75.43;99291.91;2249811;78;20999;-79
2021/08/14 01:11:20;;;;;;;13.93;11.50;;;;;;;17.10;75.75;99286.19;2249428;78;21355;-80
2021/08/14 01:14:20;;;;;;;15.83;12.37;;;;;;;17.14;75.63;99281.76;2274935;77;21013;-79
2021/08/14 01:17:21;;;;;;;17.75;11.73;;;;;;;17.15;75.59;99283.06;2281768;78;20957;-81
2021/08/14 01:20:22;;;;;;;14.80;12.07;;;;;;;17.15;75.49;99287.02;2282028;78;20907;-79
2021/08/14 01:23:22;;;;;;;18.07;12.37;;;;;;;17.16;75.55;99282.18;2279431;78;21096;-80
2021/08/14 01:26:23;;;;;;;18.48;13.08;;;;;;;17.17;75.53;99276.45;2276489;78;20937;-80
2021/08/14 01:29:23;;;;;;;14.07;12.40;;;;;;;17.19;75.45;99282.59;2282472;78;21346;-80
2021/08/14 01:32:24;;;;;;;14.53;12.07;;;;;;;17.16;75.51;99280.86;2282550;78;20954;-80
2021/08/14 01:35:25;;;;;;;17.75;12.85;;;;;;;17.16;75.43;99278.66;2282256;78;20934;-80
2021/08/14 01:38:25;;;;;;;13.98;11.48;;;;;;;17.15;75.40;99279.11;2282131;78;20930;-81
2021/08/14 01:41:26;;;;;;;14.90;12.10;;;;;;;17.14;75.49;99276.48;2282457;78;20961;-80
2021/08/14 01:44:26;;;;;;;14.58;11.97;;;;;;;17.14;75.45;99284.39;2282598;78;20935;-80
2021/08/14 01:47:27;;;;;;;14.58;11.45;;;;;;;17.12;75.44;99283.09;2282227;78;20969;-81
2021/08/14 01:50:27;;;;;;;13.18;11.43;;;;;;;17.10;75.55;99283.98;2282360;78;20910;-80
2021/08/14 01:53:28;;;;;;;19.05;11.68;;;;;;;16.99;75.51;99278.79;2280392;78;21075;-80
2021/08/14 01:56:28;;;;;;;13.93;10.60;;;;;;;16.91;75.53;99281.92;2265881;78;20923;-80
2021/08/14 01:59:29;;;;;;;19.20;10.95;;;;;;;16.85;75.65;99279.33;2282792;78;20958;-80
2021/08/14 02:02:29;;;;;;;14.98;11.03;;;;;;;16.81;75.74;99286.38;2283671;78;20906;-80
2021/08/14 02:05:30;;;;;;;13.15;10.58;;;;;;;16.86;76.11;99283.27;2283298;78;20927;-80
2021/08/14 02:08:30;;;;;;;15.48;11.15;;;;;;;16.85;76.00;99281.52;2283640;78;20997;-79
2021/08/14 02:11:33;;;;;;;17.55;12.28;;;;;;;16.84;76.07;99278.89;2283298;78;20969;-81
2021/08/14 02:14:33;;;;;;;15.25;11.10;;;;;;;16.85;76.11;99274.93;2257959;78;20960;-81
2021/08/14 02:17:34;;;;;;;12.50;11.20;;;;;;;16.87;76.18;99272.28;2250695;78;20991;-79
2021/08/14 02:20:34;;;;;;;13.10;11.68;;;;;;;16.84;76.14;99263.95;2250986;79;20963;-79
2021/08/14 02:23:35;;;;;;;16.57;12.60;;;;;;;16.83;76.26;99257.38;2251425;78;20947;-80
2021/08/14 02:26:35;;;;;;;14.93;12.00;;;;;;;16.86;76.43;99259.98;2251807;78;20959;-80
2021/08/14 02:29:36;;;;;;;16.32;14.45;;;;;;;16.91;76.61;99259.51;2251369;78;21038;-79
2021/08/14 02:32:36;;;;;;;20.02;17.90;;;;;;;16.93;76.33;99256.42;2251547;79;20968;-80
2021/08/14 02:35:37;;;;;;;17.50;12.43;;;;;;;16.97;76.48;99259.47;2251000;79;20956;-79
2021/08/14 02:38:37;;;;;;;14.15;12.00;;;;;;;17.00;76.40;99255.48;2251325;78;20944;-78
2021/08/14 02:41:38;;;;;;;16.12;11.93;;;;;;;17.02;76.50;99244.92;2251280;78;20881;-80
2021/08/14 02:44:38;;;;;;;12.95;11.57;;;;;;;17.06;76.53;99247.53;2251826;79;20885;-79
2021/08/14 02:47:39;;;;;;;13.22;11.85;;;;;;;17.10;76.58;99250.58;2251771;79;21003;-79
2021/08/14 02:50:39;;;;;;;13.68;12.05;;;;;;;17.13;76.62;99250.55;2251864;78;20940;-79
2021/08/14 02:53:39;;;;;;;19.25;11.70;;;;;;;17.18;76.48;99250.06;2251662;78;20956;-80
2021/08/14 02:56:40;;;;;;;14.83;12.20;;;;;;;17.23;76.61;99249.16;2251673;78;20915;-80
2021/08/14 02:59:40;;;;;;;18.40;11.90;;;;;;;17.24;76.58;99244.30;2251433;78;20991;-81
2021/08/14 03:02:41;;;;;;;15.10;11.83;;;;;;;17.27;76.62;99245.60;2250297;78;20928;-80
2021/08/14 03:05:42;;;;;;;13.25;11.25;;;;;;;17.29;76.68;99247.34;2250344;79;20952;-81
2021/08/14 03:08:42;;;;;;;63.87;15.85;;;;;;;17.32;76.65;99243.35;2251591;79;21031;-80
2021/08/14 03:11:43;;;;;;;14.75;11.85;;;;;;;17.36;76.60;99244.23;2252064;79;20935;-80
2021/08/14 03:14:43;;;;;;;13.50;12.15;;;;;;;17.42;76.69;99246.37;2251553;77;20967;-81
2021/08/14 03:17:44;;;;;;;13.58;12.15;;;;;;;17.46;76.49;99247.22;2250613;79;20948;-81
2021/08/14 03:20:44;;;;;;;13.70;11.33;;;;;;;17.50;76.60;99252.89;2251163;78;20940;-81
2021/08/14 03:23:45;;;;;;;14.87;11.48;;;;;;;17.50;76.50;99253.77;2252799;78;20924;-80
2021/08/14 03:26:46;;;;;;;15.40;10.75;;;;;;;17.52;76.51;99251.12;2265328;79;21003;-80
2021/08/14 03:29:46;;;;;;;16.07;10.70;;;;;;;17.53;76.48;99258.14;2259575;79;20987;-81
2021/08/14 03:35:49;;;;;;;13.68;10.70;;;;;;;17.55;76.50;99260.33;2221846;79;20979;-80
2021/08/14 03:38:50;;;;;;;31.52;25.20;;;;;;;17.57;76.54;99263.83;2251123;79;20968;-81
2021/08/14 03:41:50;;;;;;;17.12;14.63;;;;;;;17.59;76.60;99255.89;2251100;78;20959;-81
2021/08/14 03:44:50;;;;;;;14.95;12.13;;;;;;;17.60;76.61;99254.55;2251359;78;20912;-82
2021/08/14 03:47:51;;;;;;;13.78;11.00;;;;;;;17.63;76.58;99253.20;2251558;79;20998;-81
2021/08/14 03:50:52;;;;;;;12.55;10.70;;;;;;;17.68;76.70;99252.75;2251173;78;20968;-81
2021/08/14 03:53:52;;;;;;;14.18;10.18;;;;;;;17.71;76.57;99251.39;2250264;78;21007;-81
2021/08/14 03:56:54;;;;;;;12.88;10.55;;;;;;;17.72;76.55;99254.46;2250801;79;20991;-82
2021/08/14 03:59:54;;;;;;;12.63;9.70;;;;;;;17.77;76.58;99255.29;2251445;79;20984;-81
2021/08/14 04:02:55;;;;;;;11.78;10.58;;;;;;;17.80;76.54;99251.74;2250774;78;20940;-81
2021/08/14 04:05:55;;;;;;;12.43;11.15;;;;;;;17.82;76.38;99246.87;2250733;78;20927;-80
2021/08/14 04:08:56;;;;;;;12.40;11.10;;;;;;;17.82;76.38;99246.87;2250511;79;20980;-81
2021/08/14 04:11:56;;;;;;;12.60;10.68;;;;;;;17.85;76.32;99241.13;2250935;79;21359;-81
2021/08/14 04:14:59;;;;;;;11.93;10.25;;;;;;;17.89;76.42;99245.48;2275497;77;20974;-80
2021/08/14 04:17:59;;;;;;;16.45;11.22;;;;;;;17.93;76.41;99243.23;2282937;78;21011;-81
2021/08/14 04:21:00;;;;;;;13.00;11.35;;;;;;;17.98;76.23;99246.25;2283894;78;20938;-81
2021/08/14 04:24:00;;;;;;;12.20;10.88;;;;;;;18.09;76.20;99250.09;2281637;78;20922;-81
2021/08/14 04:27:01;;;;;;;11.53;10.45;;;;;;;18.19;76.20;99253.05;2255640;78;21018;-81
2021/08/14 04:30:02;;;;;;;21.93;18.23;;;;;;;18.28;76.21;99250.77;2283908;78;20984;-80
2021/08/14 04:33:03;;;;;;;24.15;20.35;;;;;;;18.37;76.17;99254.17;2283514;78;20950;-83
2021/08/14 04:36:03;;;;;;;19.25;13.18;;;;;;;18.46;76.07;99255.36;2282952;78;20934;-83
2021/08/14 04:39:04;;;;;;;12.13;10.88;;;;;;;18.58;76.01;99251.68;2283295;78;20977;-82
2021/08/14 04:42:04;;;;;;;15.55;11.08;;;;;;;18.66;75.83;99252.48;2283285;78;21273;-82
2021/08/14 04:45:05;;;;;;;13.10;11.85;;;;;;;18.92;74.99;99258.70;2283141;78;20953;-83
2021/08/14 04:48:05;;;;;;;12.30;11.08;;;;;;;18.92;74.99;99258.70;2282697;78;20938;-81
2021/08/14 04:51:06;;;;;;;14.53;11.38;;;;;;;19.08;74.93;99258.92;2282906;78;20942;-82
2021/08/14 04:54:06;;;;;;;48.63;16.55;;;;;;;19.23;74.77;99245.89;2280484;78;21335;-82
2021/08/14 04:57:07;;;;;;;30.35;20.48;;;;;;;19.39;74.32;99250.48;2252361;79;21027;-82
2021/08/14 05:00:07;;;;;;;23.90;12.53;;;;;;;19.52;73.92;99252.45;2274459;78;20961;-82
2021/08/14 05:03:08;;;;;;;17.32;12.15;;;;;;;19.69;73.56;99255.26;2282547;78;21318;-81
2021/08/14 05:06:08;;;;;;;13.15;11.85;;;;;;;19.88;73.21;99249.61;2281616;78;20957;-81
2021/08/14 05:09:09;;;;;;;13.55;11.48;;;;;;;20.12;72.67;99249.61;2281527;78;21000;-81
2021/08/14 05:12:09;;;;;;;14.78;11.10;;;;;;;20.42;72.32;99246.80;2281761;78;20942;-81
2021/08/14 05:15:10;;;;;;;16.05;11.48;;;;;;;20.64;71.55;99253.38;2281356;77;21008;-82
2021/08/14 05:18:10;;;;;;;17.25;11.45;;;;;;;20.90;70.69;99255.02;2280755;78;20945;-81
2021/08/14 05:21:11;;;;;;;17.55;15.50;;;;;;;21.16;70.16;99261.48;2280822;78;20946;-79
2021/08/14 05:24:11;;;;;;;19.32;17.15;;;;;;;21.48;69.62;99254.08;2280820;78;20953;-80
2021/08/14 05:27:12;;;;;;;16.97;15.18;;;;;;;21.83;69.00;99253.17;2280690;78;21008;-79
2021/08/14 05:30:12;;;;;;;14.83;13.32;;;;;;;22.09;68.39;99257.34;2280561;78;20984;-80
2021/08/14 05:33:15;;;;;;;19.75;12.80;;;;;;;22.30;67.94;99259.84;2259788;78;20914;-79
2021/08/14 05:36:15;;;;;;;13.90;12.45;;;;;;;22.43;67.61;99257.70;2281565;78;20965;-80
2021/08/14 05:39:16;;;;;;;21.90;12.07;;;;;;;22.53;67.65;99260.50;2281635;78;20957;-80
2021/08/14 05:42:16;;;;;;;13.20;10.75;;;;;;;22.57;67.57;99266.17;2281451;78;20945;-81
2021/08/14 05:45:16;;;;;;;14.70;10.70;;;;;;;22.63;67.80;99266.45;2280913;78;20989;-79
2021/08/14 05:48:17;;;;;;;13.03;11.57;;;;;;;22.68;67.66;99270.71;2281242;78;21012;-80
2021/08/14 05:51:17;;;;;;;14.25;11.08;;;;;;;22.76;67.62;99264.69;2282105;78;20962;-81
2021/08/14 05:54:18;;;;;;;16.80;11.25;;;;;;;22.84;67.74;99261.36;2281429;78;20966;-81
2021/08/14 05:57:18;;;;;;;19.15;10.55;;;;;;;22.92;67.52;99262.45;2281305;78;20942;-82
2021/08/14 06:00:19;;;;;;;12.60;10.25;;;;;;;23.03;67.18;99268.77;2281305;78;21365;-81
2021/08/14 06:03:19;;;;;;;20.05;12.13;;;;;;;23.18;67.30;99270.94;2281733;78;20950;-81
2021/08/14 06:06:20;;;;;;;26.95;11.30;;;;;;;23.33;66.10;99266.90;2281935;78;20950;-80
2021/08/14 06:09:20;;;;;;;31.07;12.80;;;;;;;23.47;65.70;99272.21;2281683;78;20981;-82
2021/08/14 06:12:21;;;;;;;26.15;11.73;;;;;;;23.61;64.98;99273.11;2281769;78;20949;-80
2021/08/14 06:15:21;;;;;;;19.65;12.50;;;;;;;23.74;65.22;99285.55;2281727;77;20969;-80
2021/08/14 06:18:22;;;;;;;99.32;21.65;;;;;;;23.81;64.01;99283.08;2281288;78;21017;-80
2021/08/14 06:21:23;;;;;;;24.77;16.17;;;;;;;23.88;63.95;99284.61;2281072;78;20954;-79
2021/08/14 06:24:23;;;;;;;20.97;13.45;;;;;;;23.96;63.76;99282.54;2279865;78;21363;-81
2021/08/14 06:27:24;;;;;;;19.10;12.03;;;;;;;24.01;63.37;99285.91;2275079;78;20981;-80
2021/08/14 06:30:24;;;;;;;33.60;11.75;;;;;;;24.08;63.04;99290.56;2281583;78;20969;-81
2021/08/14 06:33:25;;;;;;;48.98;14.13;;;;;;;24.21;62.54;99281.66;2281770;78;21373;-81
2021/08/14 06:36:25;;;;;;;16.17;10.45;;;;;;;24.50;62.15;99278.84;2280959;78;20989;-79
2021/08/14 06:39:26;;;;;;;16.35;14.07;;;;;;;24.63;61.06;99278.78;2281026;78;21244;-80
2021/08/14 06:42:26;;;;;;;38.23;19.90;;;;;;;24.77;60.81;99283.58;2281012;78;20973;-79
2021/08/14 06:45:27;;;;;;;20.23;11.05;;;;;;;24.90;60.73;99282.17;2280838;78;20934;-80
2021/08/14 06:48:27;;;;;;;17.73;10.32;;;;;;;24.97;60.46;99286.38;2280562;78;21000;-80
2021/08/14 06:51:28;;;;;;;16.95;11.00;;;;;;;25.00;60.04;99288.92;2281716;78;21351;-81
2021/08/14 06:54:28;;;;;;;14.70;10.50;;;;;;;25.07;59.76;99290.88;2280394;78;21377;-81
2021/08/14 06:57:29;;;;;;;13.18;10.00;;;;;;;25.15;59.80;99292.81;2252902;78;20970;-80
2021/08/14 07:00:30;;;;;;;14.18;10.35;;;;;;;25.36;59.76;99289.73;2281698;78;20942;-81
2021/08/14 07:03:30;;;;;;;12.88;10.35;;;;;;;25.52;59.05;99291.30;2281840;78;20934;-81
2021/08/14 07:06:31;;;;;;;15.10;11.30;;;;;;;25.76;58.55;99289.42;2281812;78;20910;-81
2021/08/14 07:09:31;;;;;;;17.80;11.18;;;;;;;26.26;58.05;99293.92;2281584;78;20955;-80
2021/08/14 07:12:32;;;;;;;10.60;9.53;;;;;;;26.83;56.85;99290.88;2280561;78;21331;-79
2021/08/14 07:15:32;;;;;;;14.23;9.75;;;;;;;27.08;56.00;99291.50;2257327;77;21471;-81
2021/08/14 07:18:33;;;;;;;12.68;10.53;;;;;;;27.16;55.56;99290.66;2248944;78;20975;-80
2021/08/14 07:21:34;;;;;;;14.98;10.05;;;;;;;27.21;55.19;99291.30;2249291;79;20936;-80
2021/08/14 07:24:34;;;;;;;19.10;11.20;;;;;;;27.01;54.81;99291.40;2249333;79;20924;-80
2021/08/14 07:27:35;;;;;;;14.38;10.72;;;;;;;26.74;55.09;99287.29;2249450;79;20943;-80
2021/08/14 07:30:35;;;;;;;14.45;10.43;;;;;;;26.61;55.52;99282.51;2249268;78;20936;-80
2021/08/14 07:33:36;;;;;;;15.18;9.90;;;;;;;26.66;55.54;99280.48;2249660;79;20928;-80
2021/08/14 07:36:36;;;;;;;10.95;9.53;;;;;;;26.95;55.20;99284.49;2249315;78;20967;-79
2021/08/14 07:39:37;;;;;;;11.22;9.93;;;;;;;27.33;54.56;99281.79;2249490;78;20948;-81
2021/08/14 07:42:37;;;;;;;13.20;10.25;;;;;;;27.69;53.52;99281.78;2249712;78;20873;-80
2021/08/14 07:45:38;;;;;;;11.08;9.98;;;;;;;27.82;52.91;99285.61;2249292;78;20924;-80
2021/08/14 07:48:38;;;;;;;12.33;9.73;;;;;;;28.06;52.17;99278.56;2248967;78;20983;-79
2021/08/14 07:51:41;;;;;;;14.60;10.13;;;;;;;28.44;51.80;99285.95;2227789;79;20951;-80
2021/08/14 07:54:41;;;;;;;11.22;9.33;;;;;;;28.67;51.23;99276.67;2249307;78;21334;-81
2021/08/14 07:57:42;;;;;;;15.75;9.23;;;;;;;28.83;50.00;99285.61;2249572;78;20936;-81
2021/08/14 08:00:42;;;;;;;13.00;10.43;;;;;;;28.79;49.84;99280.89;2249584;78;20948;-81
2021/08/14 08:03:43;;;;;;;14.58;10.93;;;;;;;28.95;50.41;99282.74;2249463;78;20956;-81
2021/08/14 08:06:43;;;;;;;12.10;9.03;;;;;;;29.00;49.39;99284.22;2249659;79;20933;-80
2021/08/14 08:09:44;;;;;;;11.73;9.53;;;;;;;28.96;48.85;99280.45;2249124;79;20976;-80
2021/08/14 08:12:44;;;;;;;12.75;9.58;;;;;;;28.85;48.78;99275.67;2249556;78;21312;-79
2021/08/14 08:15:45;;;;;;;14.75;9.55;;;;;;;28.80;49.22;99273.69;2272873;77;20954;-78
2021/08/14 08:18:46;;;;;;;12.68;9.85;;;;;;;28.75;48.64;99277.11;2281405;77;20985;-79
2021/08/14 08:21:46;;;;;;;12.88;9.28;;;;;;;28.55;49.11;99276.83;2281212;77;20930;-79
2021/08/14 08:24:47;;;;;;;9.18;8.30;;;;;;;28.45;48.67;99275.13;2281154;77;20934;-79
2021/08/14 08:27:47;;;;;;;11.63;9.60;;;;;;;28.40;48.42;99273.64;2280824;78;20938;-79
2021/08/14 08:30:48;;;;;;;17.02;10.08;;;;;;;28.34;49.01;99270.81;2281141;78;21000;-79
2021/08/14 08:33:48;;;;;;;12.10;9.63;;;;;;;28.45;48.62;99266.20;2281151;78;21290;-79
2021/08/14 08:36:49;;;;;;;10.78;9.48;;;;;;;28.76;49.00;99269.44;2280726;78;21001;-79
2021/08/14 08:39:49;;;;;;;14.98;9.90;;;;;;;29.10;48.16;99267.96;2281918;78;20919;-79
2021/08/14 08:42:50;;;;;;;13.90;9.08;;;;;;;29.52;47.66;99267.84;2281909;78;20938;-80
2021/08/14 08:45:50;;;;;;;10.05;9.08;;;;;;;29.97;45.56;99264.69;2281888;78;20954;-80
2021/08/14 08:48:51;;;;;;;9.73;8.73;;;;;;;30.17;44.13;99262.16;2281698;78;20980;-80
2021/08/14 08:51:51;;;;;;;10.30;8.98;;;;;;;30.15;44.14;99256.86;2281216;78;21337;-81
2021/08/14 08:54:52;;;;;;;9.58;8.63;;;;;;;30.54;44.36;99255.36;2281479;78;20945;-79
2021/08/14 08:57:53;;;;;;;9.90;8.20;;;;;;;30.66;43.05;99252.79;2280316;78;20989;-80
2021/08/14 09:00:53;;;;;;;14.07;8.95;;;;;;;30.83;43.47;99258.44;2281198;78;20966;-79
2021/08/14 09:03:54;;;;;;;14.05;10.35;;;;;;;30.98;43.30;99252.05;2281310;78;20961;-80
2021/08/14 09:06:54;;;;;;;12.18;9.45;;;;;;;31.33;42.75;99253.83;2281302;78;20958;-79
2021/08/14 09:09:55;;;;;;;10.43;8.90;;;;;;;31.47;41.81;99256.95;2280176;78;21302;-79
2021/08/14 09:12:55;;;;;;;9.15;7.67;;;;;;;31.47;41.35;99261.48;2281350;77;21345;-79
2021/08/14 09:15:56;;;;;;;12.82;8.80;;;;;;;31.52;39.86;99256.16;2287603;78;20972;-80
2021/08/14 09:18:56;;;;;;;9.15;8.13;;;;;;;31.49;41.28;99255.50;2291712;78;20999;-79
2021/08/14 09:21:57;;;;;;;9.10;8.13;;;;;;;31.85;41.16;99248.97;2291344;78;21002;-81
2021/08/14 09:24:57;;;;;;;9.43;8.43;;;;;;;32.18;39.49;99257.08;2292528;78;20971;-82
2021/08/14 09:27:58;;;;;;;10.08;9.08;;;;;;;31.72;38.57;99249.92;2291348;78;20972;-83
2021/08/14 09:30:58;;;;;;;11.68;8.68;;;;;;;30.94;39.76;99250.52;2291041;78;20968;-80
2021/08/14 09:33:59;;;;;;;10.98;9.38;;;;;;;30.41;41.31;99241.33;2290755;78;21303;-78
2021/08/14 09:37:00;;;;;;;11.88;8.33;;;;;;;30.37;41.88;99246.52;2290647;78;20920;-80
2021/08/14 09:40:01;;;;;;;90.90;74.27;;;;;;;30.47;41.45;99239.20;2290759;78;21008;-81
2021/08/14 09:43:02;;;;;;;46.25;41.28;;;;;;;30.55;41.34;99239.11;2290916;78;20940;-80
2021/08/14 09:46:02;;;;;;;86.60;77.32;;;;;;;30.72;41.13;99233.53;2290661;78;20979;-80
2021/08/14 09:49:03;;;;;;;109.95;98.00;;;;;;;30.90;41.55;99238.69;2290993;78;21003;-82
2021/08/14 09:52:03;;;;;;;29.10;26.07;;;;;;;30.99;40.89;99235.39;2290861;78;20968;-80
2021/08/14 09:55:03;;;;;;;10.32;9.33;;;;;;;30.99;40.29;99234.91;2290824;78;21316;-81
2021/08/14 09:58:04;;;;;;;48.23;43.23;;;;;;;31.09;39.52;99232.95;2291477;78;21410;-82
2021/08/14 10:01:05;;;;;;;14.90;12.07;;;;;;;31.13;40.32;99230.44;2291676;78;21005;-81
2021/08/14 10:04:06;;;;;;;8.08;7.28;;;;;;;31.08;39.71;99229.88;2292072;78;20975;-82
2021/08/14 10:07:06;;;;;;;15.58;14.18;;;;;;;31.01;39.30;99234.81;2291667;78;20991;-82
2021/08/14 10:10:07;;;;;;;8.95;8.15;;;;;;;30.95;39.59;99225.30;2291801;78;21043;-83
2021/08/14 10:13:07;;;;;;;11.10;9.98;;;;;;;30.62;40.06;99227.48;2291440;78;20975;-82
2021/08/14 10:16:08;;;;;;;9.75;8.83;;;;;;;30.60;41.11;99220.85;2290411;78;20913;-82
2021/08/14 10:19:08;;;;;;;10.23;9.08;;;;;;;30.80;41.28;99219.56;2292666;78;20963;-82
2021/08/14 10:22:09;;;;;;;11.10;7.60;;;;;;;30.88;41.00;99218.58;2291388;78;20960;-83
2021/08/14 10:25:09;;;;;;;12.30;8.38;;;;;;;31.08;40.66;99215.05;2291371;78;20947;-82
2021/08/14 10:28:10;;;;;;;11.20;10.18;;;;;;;30.96;39.70;99218.08;2290942;78;21011;-82
2021/08/14 10:31:10;;;;;;;13.53;9.65;;;;;;;30.88;40.53;99219.92;2291539;78;21312;-86
2021/08/14 10:34:11;;;;;;;280.87;251.35;;;;;;;31.12;39.70;99214.75;2291067;78;20920;-82
2021/08/14 10:37:11;;;;;;;115.40;103.32;;;;;;;31.38;39.72;99213.06;2290975;78;20956;-82
2021/08/14 10:40:12;;;;;;;194.00;174.10;;;;;;;31.51;37.84;99213.96;2290779;78;21030;-83
2021/08/14 10:43:12;;;;;;;38.17;34.20;;;;;;;31.59;38.96;99202.16;2278008;78;20913;-81
2021/08/14 10:46:13;;;;;;;20.15;18.07;;;;;;;31.76;39.36;99205.56;2278071;78;20885;-81
2021/08/14 10:49:13;;;;;;;9.48;8.55;;;;;;;31.99;38.03;99205.68;2278208;78;21339;-79
2021/08/14 10:52:14;;;;;;;10.10;8.75;;;;;;;32.08;35.54;99206.91;2279445;78;20952;-78
2021/08/14 10:55:14;;;;;;;198.47;178.40;;;;;;;32.08;36.65;99194.75;2278750;78;20948;-81
2021/08/14 10:58:15;;;;;;;345.23;303.15;;;;;;;32.11;36.74;99199.94;2278033;78;20956;-81
2021/08/14 11:01:15;;;;;;;117.10;104.25;;;;;;;31.93;37.28;99203.90;2278163;78;20917;-79
2021/08/14 11:04:16;;;;;;;13.80;12.35;;;;;;;32.00;36.87;99191.21;2277806;78;20905;-79
2021/08/14 11:07:16;;;;;;;9.95;8.95;;;;;;;32.40;36.65;99192.48;2277907;78;20940;-78
2021/08/14 11:10:17;;;;;;;20.62;15.90;;;;;;;32.76;35.99;99192.12;2278698;78;21319;-80
2021/08/14 11:13:17;;;;;;;21.00;18.55;;;;;;;32.77;35.68;99187.98;2279006;78;20943;-79
2021/08/14 11:16:18;;;;;;;18.85;15.78;;;;;;;32.43;36.69;99188.69;2278061;78;20972;-79
2021/08/14 11:19:18;;;;;;;20.08;13.72;;;;;;;32.28;36.85;99179.38;2278345;78;20908;-81
2021/08/14 11:22:19;;;;;;;12.88;11.30;;;;;;;32.19;37.32;99183.19;2278504;78;20935;-81
2021/08/14 11:25:20;;;;;;;18.02;15.32;;;;;;;32.20;36.69;99184.42;2278289;78;20903;-81
2021/08/14 11:28:20;;;;;;;11.45;9.20;;;;;;;32.37;37.11;99183.25;2278714;78;21362;-82
2021/08/14 11:31:21;;;;;;;62.93;57.00;;;;;;;32.59;35.92;99182.55;2279334;78;21364;-82
2021/08/14 11:34:21;;;;;;;175.70;158.20;;;;;;;32.65;36.37;99172.64;2279033;78;20942;-80
2021/08/14 11:37:22;;;;;;;62.08;55.80;;;;;;;32.88;35.37;99171.83;2279048;78;20943;-81
2021/08/14 11:40:23;;;;;;;33.65;29.30;;;;;;;32.81;35.04;99171.91;2278683;78;20901;-80
2021/08/14 11:43:23;;;;;;;21.07;18.60;;;;;;;32.74;35.68;99164.34;2279516;78;20897;-80
2021/08/14 11:46:24;;;;;;;9.70;8.40;;;;;;;32.77;35.48;99165.46;2278879;78;20908;-80
2021/08/14 11:49:24;;;;;;;9.00;8.10;;;;;;;32.77;34.58;99166.36;2278258;78;21346;-80
2021/08/14 11:52:25;;;;;;;9.98;8.98;;;;;;;32.78;34.79;99161.81;2278352;78;21279;-81
2021/08/14 11:55:25;;;;;;;20.15;18.10;;;;;;;32.77;34.20;99169.52;2278229;78;20932;-82
2021/08/14 11:58:27;;;;;;;10.03;9.03;;;;;;;32.60;35.07;99164.87;2277883;78;20960;-83
2021/08/14 12:01:27;;;;;;;8.60;7.85;;;;;;;32.69;34.76;99157.92;2278625;78;20968;-82
2021/08/14 12:04:28;;;;;;;18.82;17.05;;;;;;;32.70;33.52;99153.38;2278367;78;21300;-82
2021/08/14 12:07:28;;;;;;;20.25;17.00;;;;;;;32.35;34.08;99155.48;2278469;78;21356;-80
2021/08/14 12:10:29;;;;;;;10.05;9.05;;;;;;;32.38;34.56;99155.26;2278500;78;20935;-82
2021/08/14 12:13:29;;;;;;;9.35;8.15;;;;;;;32.53;33.93;99155.48;2278481;78;20901;-81
2021/08/14 12:16:30;;;;;;;8.35;7.65;;;;;;;32.75;33.28;99157.95;2278281;78;20979;-81
2021/08/14 12:19:31;;;;;;;11.50;7.85;;;;;;;32.80;33.06;99153.97;2280033;78;20939;-80
2021/08/14 12:22:31;;;;;;;9.68;8.45;;;;;;;32.54;33.74;99157.70;2279990;78;20901;-80
2021/08/14 12:25:32;;;;;;;12.10;8.05;;;;;;;32.45;34.89;99159.23;2279895;78;21241;-80
2021/08/14 12:28:32;;;;;;;12.95;9.55;;;;;;;32.28;33.48;99159.59;2279328;78;21466;-80
2021/08/14 12:31:33;;;;;;;15.20;10.08;;;;;;;32.27;35.44;99155.17;2280138;78;20980;-79
2021/08/14 12:34:33;;;;;;;14.50;8.50;;;;;;;32.48;35.08;99150.91;2279694;78;20912;-79
2021/08/14 12:37:34;;;;;;;12.43;9.38;;;;;;;32.32;34.79;99149.44;2279578;78;20904;-80
2021/08/14 12:40:34;;;;;;;8.88;7.95;;;;;;;32.37;34.93;99150.83;2279514;78;20877;-80
2021/08/14 12:43:35;;;;;;;10.03;8.58;;;;;;;32.41;34.59;99138.83;2278019;78;20885;-80
2021/08/14 12:46:35;;;;;;;11.97;9.20;;;;;;;32.59;34.93;99148.77;2277914;78;20901;-82
2021/08/14 12:49:36;;;;;;;10.15;9.15;;;;;;;32.51;34.03;99139.02;2278201;78;20952;-83
2021/08/14 12:52:36;;;;;;;13.38;9.53;;;;;;;32.38;34.53;99146.29;2278268;78;21276;-81
2021/08/14 12:55:37;;;;;;;10.90;8.43;;;;;;;32.26;34.96;99138.59;2278352;78;20960;-81
2021/08/14 12:58:37;;;;;;;9.43;8.45;;;;;;;32.02;34.60;99138.94;2278669;78;20968;-82
2021/08/14 13:01:38;;;;;;;11.88;8.65;;;;;;;32.05;35.08;99134.19;2278579;78;20924;-81
2021/08/14 13:04:39;;;;;;;9.00;8.05;;;;;;;32.11;35.23;99133.78;2278682;78;20920;-82
2021/08/14 13:07:40;;;;;;;10.35;8.60;;;;;;;32.19;34.34;99146.73;2278522;78;21363;-83
2021/08/14 13:10:40;;;;;;;94.50;84.77;;;;;;;32.19;34.54;99132.73;2278362;78;20885;-81
2021/08/14 13:13:40;;;;;;;104.80;93.52;;;;;;;32.43;35.20;99132.82;2278531;78;20909;-81
2021/08/14 13:16:41;;;;;;;14.23;12.82;;;;;;;32.63;35.39;99130.86;2278379;78;20975;-81
2021/08/14 13:19:41;;;;;;;15.75;14.10;;;;;;;32.59;33.68;99125.80;2278598;78;20943;-81
2021/08/14 13:22:42;;;;;;;10.65;9.55;;;;;;;32.75;33.91;99123.67;2278602;78;20893;-83
2021/08/14 13:25:43;;;;;;;9.88;8.98;;;;;;;33.03;33.93;99118.96;2278618;78;20932;-82
2021/08/14 13:28:43;;;;;;;77.50;69.45;;;;;;;33.13;33.53;99120.84;2278411;78;20980;-82
2021/08/14 13:31:44;;;;;;;177.82;160.10;;;;;;;33.25;33.95;99116.34;2278864;78;20952;-82
2021/08/14 13:34:46;;;;;;;62.70;56.20;;;;;;;33.36;34.06;99123.66;2278989;78;20881;-84
2021/08/14 13:37:46;;;;;;;16.20;14.77;;;;;;;32.99;33.48;99121.03;2279459;78;20957;-81
2021/08/14 13:40:47;;;;;;;11.35;10.20;;;;;;;32.89;34.44;99114.56;2279466;78;20865;-83
2021/08/14 13:43:47;;;;;;;12.68;11.03;;;;;;;32.65;33.91;99123.13;2278962;78;20901;-82
2021/08/14 13:46:48;;;;;;;50.55;45.38;;;;;;;32.27;34.95;99118.22;2278676;78;21319;-81
2021/08/14 13:49:48;;;;;;;200.53;181.57;;;;;;;31.95;35.22;99117.78;2277987;78;20968;-82
2021/08/14 13:52:49;;;;;;;13.58;12.33;;;;;;;31.69;35.77;99111.98;2278485;78;20924;-82
2021/08/14 13:55:49;;;;;;;20.37;18.02;;;;;;;31.46;36.57;99114.08;2278719;78;20991;-83